Time;durP1;ratioP1;P1;durP2;ratioP2;P2;SDS_P1;SDS_P2;PMS_P1;PMS_P2;Temp;Humidity;BMP_temperature;BMP_pressure;BME280_temperature;BME280_humidity;BME280_pressure;Samples;Min_cycle;Max_cycle;Signal;HPM_P1;HPM_P2
2021/04/06 00:01:57;;;;;;;30.00;16.98;;;;;;;10.55;73.26;71739.22;4972533;28;20041;-87
2021/04/06 00:04:27;;;;;;;24.17;16.15;;;;;;;10.64;73.31;71747.19;4971857;28;20042;-87
2021/04/06 00:07:04;;;;;;;21.63;14.40;;;;;;;9.90;71.01;71664.75;4971447;28;20055;-86
2021/04/06 00:09:33;;;;;;;21.40;13.07;;;;;;;9.82;70.90;71653.06;4979056;28;20484;-87
2021/04/06 00:12:04;;;;;;;23.23;13.43;;;;;;;10.78;68.92;71757.78;4991230;28;20030;-87
2021/04/06 00:14:31;;;;;;;;;;;;;;;10.82;67.96;71767.47;4991987;28;20510;-87
2021/04/06 00:17:01;;;;;;;19.15;9.90;;;;;;;10.49;66.81;71732.66;4995563;28;20279;-86
2021/04/06 00:19:32;;;;;;;21.65;9.68;;;;;;;10.38;65.89;71720.13;4995287;28;20121;-86
2021/04/06 00:22:02;;;;;;;18.20;10.07;;;;;;;10.43;67.21;71725.53;4994751;28;20126;-87
2021/04/06 00:24:32;;;;;;;17.05;10.02;;;;;;;10.14;67.86;71692.16;4994926;28;20022;-87
2021/04/06 00:27:33;;;;;;;18.42;9.93;;;;;;;10.39;67.46;71721.34;4994440;28;20034;-87
2021/04/06 00:30:11;;;;;;;18.08;10.05;;;;;;;10.71;65.76;71752.19;4995774;28;20578;-86
2021/04/06 00:32:40;;;;;;;15.82;8.73;;;;;;;10.18;64.44;71696.91;4994636;28;20113;-86
2021/04/06 00:35:09;;;;;;;13.55;8.13;;;;;;;10.13;65.49;71690.97;4994444;28;20030;-86
2021/04/06 00:37:49;;;;;;;11.48;8.57;;;;;;;10.97;63.79;71786.88;4993369;28;20058;-86
2021/04/06 00:40:17;;;;;;;15.18;9.50;;;;;;;10.97;63.32;71786.88;4994279;28;20484;-86
2021/04/06 00:42:45;;;;;;;22.10;8.55;;;;;;;10.63;62.81;71742.66;4994361;28;20427;-86
2021/04/06 00:45:20;;;;;;;12.82;9.15;;;;;;;10.85;61.78;71773.78;4994034;28;20510;-86
2021/04/06 00:48:02;;;;;;;12.48;8.18;;;;;;;10.13;60.69;71690.97;4994239;28;20529;-87
2021/04/06 00:50:36;;;;;;;15.35;9.00;;;;;;;11.33;60.88;71829.19;4994492;28;20896;-87
2021/04/06 00:53:04;;;;;;;17.25;9.85;;;;;;;11.01;60.83;71788.91;4994357;28;20022;-86
2021/04/06 00:55:39;;;;;;;12.95;8.07;;;;;;;10.08;60.08;71685.59;4994117;28;20714;-87
2021/04/06 00:58:14;;;;;;;18.95;8.50;;;;;;;11.70;60.12;71868.16;4994092;28;20097;-87
2021/04/06 01:00:42;;;;;;;14.32;8.02;;;;;;;10.94;58.16;71781.16;4992931;28;20037;-87
2021/04/06 01:03:16;;;;;;;14.45;7.97;;;;;;;11.18;58.93;71808.56;4994215;28;20030;-86
2021/04/06 01:06:02;;;;;;;14.90;8.65;;;;;;;11.70;58.54;71868.16;4994371;28;20037;-85
2021/04/06 01:08:32;;;;;;;13.95;7.97;;;;;;;10.99;59.72;71787.09;4993583;28;20141;-87
2021/04/06 01:11:01;;;;;;;11.57;8.10;;;;;;;10.36;60.52;71717.75;4995647;28;20046;-86
2021/04/06 01:13:28;;;;;;;10.90;7.95;;;;;;;10.84;59.79;71771.97;5001336;28;20035;-86
2021/04/06 01:15:56;;;;;;;12.52;7.35;;;;;;;10.08;58.64;71682.25;5007640;28;20031;-86
2021/04/06 01:18:24;;;;;;;11.25;6.82;;;;;;;11.05;58.92;71794.25;5001149;28;20392;-86
2021/04/06 01:20:54;;;;;;;9.60;6.65;;;;;;;9.59;60.00;71629.03;4996376;28;20022;-87
2021/04/06 01:23:21;;;;;;;11.40;5.97;;;;;;;10.24;60.64;71704.03;4994318;28;20104;-87
2021/04/06 01:25:56;;;;;;;8.75;6.97;;;;;;;10.61;61.39;71740.28;4993030;28;20072;-87
2021/04/06 01:28:27;;;;;;;14.95;7.47;;;;;;;10.85;61.86;71773.16;4994459;28;20500;-86
2021/04/06 01:30:55;;;;;;;12.43;7.47;;;;;;;11.02;61.64;71792.84;5010577;28;20224;-86
2021/04/06 01:33:24;;;;;;;17.80;8.15;;;;;;;10.96;60.35;71783.53;4993798;28;20117;-87
2021/04/06 01:35:54;;;;;;;10.18;7.18;;;;;;;10.29;61.12;71709.44;4993288;28;20488;-87
2021/04/06 01:38:25;;;;;;;9.40;6.53;;;;;;;11.18;59.51;71811.31;4992438;28;20029;-86
2021/04/06 01:40:54;;;;;;;11.43;8.98;;;;;;;10.91;59.68;71780.31;4993741;28;20033;-86
2021/04/06 01:43:25;;;;;;;11.15;8.20;;;;;;;11.75;57.21;71876.88;4993480;28;20025;-87
2021/04/06 01:46:49;;;;;;;14.48;7.78;;;;;;;11.85;57.80;71888.81;4994534;28;20023;-85
2021/04/06 01:48:51;;;;;;;17.80;8.27;;;;;;;11.69;57.23;71869.72;4968149;28;20046;-87
2021/04/06 01:51:22;;;;;;;13.25;7.15;;;;;;;12.14;55.34;71921.63;4973279;28;20026;-86
2021/04/06 01:53:50;;;;;;;14.55;7.10;;;;;;;10.77;53.83;71764.81;4974055;28;20133;-87
2021/04/06 01:56:25;;;;;;;13.27;6.72;;;;;;;12.16;52.81;71924.00;4975203;28;20034;-85
2021/04/06 01:58:56;;;;;;;17.35;7.10;;;;;;;11.26;52.10;71820.84;4986059;28;20031;-86
2021/04/06 02:01:24;;;;;;;10.38;7.05;;;;;;;11.25;52.61;71814.16;4992982;28;20037;-85
2021/04/06 02:04:00;;;;;;;11.07;7.20;;;;;;;11.53;53.11;71849.06;4993199;28;20030;-87
2021/04/06 02:06:33;;;;;;;10.95;7.20;;;;;;;11.41;51.95;71835.38;4993015;28;20392;-87
2021/04/06 02:09:01;;;;;;;14.23;7.20;;;;;;;11.90;51.18;71892.00;4993666;28;20120;-88
2021/04/06 02:11:36;;;;;;;9.98;5.97;;;;;;;12.02;51.50;71902.38;4999516;28;20022;-87
2021/04/06 02:14:11;;;;;;;11.85;6.20;;;;;;;11.41;50.92;71837.53;5007361;28;20126;-86
2021/04/06 02:16:49;;;;;;;13.75;6.43;;;;;;;11.46;51.33;71840.72;4994417;28;20557;-86
2021/04/06 02:19:33;;;;;;;18.02;6.53;;;;;;;12.42;48.32;71954.41;5011132;28;20030;-86
2021/04/06 02:22:11;;;;;;;11.60;6.30;;;;;;;12.03;47.64;71909.09;4995851;28;20026;-87
2021/04/06 02:24:41;;;;;;;10.32;5.90;;;;;;;12.03;46.80;71909.09;4995778;28;20026;-85
2021/04/06 02:27:30;;;;;;;8.70;5.90;;;;;;;12.00;47.02;71905.50;4994412;28;20030;-86
2021/04/06 02:30:00;;;;;;;10.13;6.03;;;;;;;12.58;45.39;71966.81;5007760;28;20031;-86
2021/04/06 02:32:29;;;;;;;8.03;5.77;;;;;;;12.01;45.08;71907.28;5011399;28;20037;-86
2021/04/06 02:34:59;;;;;;;8.90;4.20;;;;;;;11.95;44.52;71899.53;5003771;28;20133;-85
2021/04/06 02:37:27;;;;;;;8.90;5.57;;;;;;;11.60;42.96;71854.09;4994864;28;20034;-86
2021/04/06 02:39:57;;;;;;;9.77;6.45;;;;;;;11.68;43.20;71865.78;5010987;28;20029;-87
2021/04/06 02:42:35;;;;;;;7.97;4.93;;;;;;;12.20;43.55;71923.28;5013555;28;20155;-88
2021/04/06 02:45:18;;;;;;;11.38;6.22;;;;;;;11.84;45.37;71887.59;5009707;28;20031;-86
2021/04/06 02:47:54;;;;;;;16.75;5.30;;;;;;;11.56;43.36;71855.41;4998638;28;20030;-87
2021/04/06 02:50:24;;;;;;;14.35;5.57;;;;;;;11.78;43.76;71878.28;4999037;28;20041;-86
2021/04/06 02:52:51;;;;;;;12.98;5.47;;;;;;;11.75;43.79;71876.88;4998137;28;20167;-85
2021/04/06 02:55:20;;;;;;;11.48;5.60;;;;;;;11.99;43.70;71904.91;5028468;28;20041;-87
2021/04/06 02:57:50;;;;;;;10.85;5.88;;;;;;;11.74;40.80;71876.28;5022975;28;20018;-87
2021/04/06 03:00:43;;;;;;;9.07;5.15;;;;;;;11.85;41.00;71888.81;4996479;28;20104;-87
2021/04/06 03:03:28;;;;;;;9.18;5.57;;;;;;;12.13;41.24;71915.50;4993018;28;20030;-87
2021/04/06 03:06:04;;;;;;;10.57;5.70;;;;;;;12.03;42.56;71909.09;4995209;28;20574;-87
2021/04/06 03:08:36;;;;;;;8.32;6.03;;;;;;;12.54;42.61;71965.38;4995057;28;20033;-87
2021/04/06 03:11:06;;;;;;;8.55;6.05;;;;;;;11.03;43.23;71794.63;4994952;28;20030;-87
2021/04/06 03:13:32;;;;;;;;;;;;;;;11.99;44.28;71902.16;4998206;28;20109;-86
2021/04/06 03:16:02;;;;;;;8.63;6.88;;;;;;;11.07;45.06;71799.38;4994768;28;19913;-87
2021/04/06 03:18:34;;;;;;;12.90;6.35;;;;;;;11.38;44.19;71834.56;4994871;28;20061;-87
2021/04/06 03:21:03;;;;;;;9.48;6.32;;;;;;;10.35;43.73;71715.97;4995281;28;20030;-87
2021/04/06 03:23:33;;;;;;;9.18;5.47;;;;;;;11.18;45.10;71808.56;4994935;28;20121;-86
2021/04/06 03:26:01;;;;;;;7.03;6.10;;;;;;;11.40;46.02;71836.34;4994960;28;20029;-87
2021/04/06 03:28:47;;;;;;;11.40;6.63;;;;;;;11.64;46.63;71861.59;4997359;28;20052;-87
2021/04/06 03:31:17;;;;;;;12.82;6.75;;;;;;;10.47;45.80;71729.69;4998606;28;20084;-87
2021/04/06 03:33:49;;;;;;;16.88;7.93;;;;;;;11.12;46.84;71804.16;4998176;28;20493;-88
2021/04/06 03:36:30;;;;;;;10.00;6.97;;;;;;;10.47;42.71;71729.69;5012950;28;20040;-87
2021/04/06 03:39:04;;;;;;;9.93;6.63;;;;;;;10.86;44.51;71774.38;4994449;28;20117;-87
2021/04/06 03:41:32;;;;;;;9.23;7.15;;;;;;;11.61;46.12;71858.03;4994549;28;20091;-87
2021/04/06 03:44:10;;;;;;;12.18;7.55;;;;;;;11.12;44.53;71804.75;4994353;28;20030;-86
2021/04/06 03:46:38;;;;;;;14.65;7.80;;;;;;;10.79;45.68;71764.47;4994889;28;20061;-87
2021/04/06 03:49:18;;;;;;;9.98;7.82;;;;;;;10.48;47.65;71725.38;4994445;28;20025;-86
2021/04/06 03:51:48;;;;;;;;;;;;;;;11.36;46.63;71832.19;4994834;28;20030;-87
2021/04/06 03:54:39;;;;;;;15.35;8.43;;;;;;;11.20;46.19;71814.31;4991258;28;20313;-87
2021/04/06 03:57:38;;;;;;;15.88;8.38;;;;;;;11.30;45.27;71825.59;4992284;28;20026;-87
2021/04/06 04:00:10;;;;;;;17.42;9.25;;;;;;;10.51;45.55;71734.44;4991388;28;20551;-86
2021/04/06 04:02:37;;;;;;;12.77;9.13;;;;;;;10.97;48.86;71784.72;4991652;28;20507;-87
2021/04/06 04:05:04;;;;;;;18.92;11.45;;;;;;;10.68;49.11;71754.09;4991950;28;20037;-86
2021/04/06 04:07:35;;;;;;;20.17;9.15;;;;;;;10.71;49.57;71752.19;4993029;28;20488;-84
2021/04/06 04:10:06;;;;;;;18.35;10.27;;;;;;;11.00;47.79;71787.72;4992200;28;20026;-88
2021/04/06 04:12:32;;;;;;;;;;;;;;;11.62;47.17;71862.56;4972882;28;20042;-86
2021/04/06 04:14:59;;;;;;;14.45;9.80;;;;;;;11.83;47.41;71883.66;4970841;28;19921;-88
2021/04/06 04:17:27;;;;;;;16.73;11.57;;;;;;;11.68;45.14;71869.13;4971924;28;20031;-85
2021/04/06 04:19:54;;;;;;;18.45;12.18;;;;;;;12.03;44.07;71909.09;4972082;28;20019;-88
2021/04/06 04:22:21;;;;;;;12.95;10.52;;;;;;;11.43;46.30;71831.66;4972426;28;20030;-86
2021/04/06 04:24:48;;;;;;;16.55;11.48;;;;;;;11.08;46.37;71800.00;4971671;28;20034;-87
2021/04/06 04:27:15;;;;;;;19.83;12.40;;;;;;;11.47;43.38;71841.94;4972376;28;20049;-87
2021/04/06 04:29:42;;;;;;;21.63;13.43;;;;;;;11.11;42.13;71797.47;4972158;28;20086;-87
2021/04/06 04:32:15;;;;;;;19.08;11.98;;;;;;;11.04;42.44;71792.47;4975104;28;20030;-85
2021/04/06 04:34:42;;;;;;;19.65;14.45;;;;;;;10.02;43.53;71672.34;4977784;28;20035;-88
2021/04/06 04:37:09;;;;;;;24.30;14.70;;;;;;;11.57;41.02;71856.63;4974333;28;20485;-88
2021/04/06 04:39:36;;;;;;;25.95;16.52;;;;;;;10.46;39.06;71729.09;4971894;28;20042;-88
2021/04/06 04:42:03;;;;;;;29.20;20.02;;;;;;;11.28;39.20;71822.66;4973380;28;20130;-86
2021/04/06 04:44:31;;;;;;;42.05;26.50;;;;;;;11.45;39.37;71839.53;4971332;28;20428;-86
2021/04/06 04:46:58;;;;;;;47.55;27.65;;;;;;;10.94;39.71;71784.50;4972860;28;20027;-87
2021/04/06 04:49:25;;;;;;;56.15;33.20;;;;;;;10.68;41.54;71754.72;4988802;28;20026;-86
2021/04/06 04:51:52;;;;;;;51.75;34.63;;;;;;;11.21;43.02;71814.88;4995049;28;20110;-86
2021/04/06 04:54:18;;;;;;;51.58;31.67;;;;;;;11.38;45.26;71834.56;4999340;28;20052;-87
2021/04/06 04:56:45;;;;;;;59.25;30.73;;;;;;;10.77;44.17;71764.81;5002784;28;20022;-86
2021/04/06 04:59:12;;;;;;;38.58;27.10;;;;;;;11.68;43.89;71865.78;5004368;28;20125;-85
2021/04/06 05:01:39;;;;;;;40.08;27.42;;;;;;;11.08;45.17;71800.59;5021096;28;20093;-87
2021/04/06 05:04:06;;;;;;;42.65;27.38;;;;;;;10.94;42.90;71778.41;5004762;28;20069;-84
2021/04/06 05:06:33;;;;;;;51.83;27.83;;;;;;;10.99;43.76;71786.53;5003342;28;20093;-85
2021/04/06 05:09:00;;;;;;;41.80;27.63;;;;;;;11.80;42.93;71879.47;5002704;28;20038;-86
2021/04/06 05:11:27;;;;;;;46.63;30.98;;;;;;;11.23;43.98;71817.88;5011991;28;20029;-86
2021/04/06 05:13:53;;;;;;;53.00;36.33;;;;;;;10.91;47.13;71774.81;5020306;28;20026;-84
2021/04/06 05:16:21;;;;;;;52.92;33.80;;;;;;;11.96;47.41;71901.34;5020266;28;20062;-86
2021/04/06 05:18:48;;;;;;;48.75;33.88;;;;;;;11.57;46.34;71853.84;5018257;28;20046;-84
2021/04/06 05:21:15;;;;;;;53.35;35.30;;;;;;;10.62;48.09;71744.22;5018724;28;20522;-85
2021/04/06 05:23:42;;;;;;;58.50;37.58;;;;;;;12.56;46.80;71967.19;5014852;28;20026;-87
2021/04/06 05:26:09;;;;;;;64.32;34.75;;;;;;;12.44;45.92;71956.81;5015778;28;20060;-87
2021/04/06 05:28:36;;;;;;;51.78;36.72;;;;;;;12.68;45.46;71984.25;5005855;28;20041;-87
2021/04/06 05:31:03;;;;;;;63.22;41.15;;;;;;;11.48;46.52;71837.63;5002207;28;20022;-86
2021/04/06 05:33:30;;;;;;;65.10;39.75;;;;;;;12.09;46.37;71913.50;5017898;28;20030;-86
2021/04/06 05:35:57;;;;;;;57.63;37.40;;;;;;;12.88;44.13;72006.94;5018510;28;20033;-87
2021/04/06 05:38:23;;;;;;;59.92;38.47;;;;;;;12.78;47.21;71995.00;4999734;28;20022;-86
2021/04/06 05:40:51;;;;;;;63.35;41.55;;;;;;;12.46;47.55;71958.59;5010503;28;20116;-88
2021/04/06 05:43:19;;;;;;;59.75;39.85;;;;;;;12.28;48.56;71934.97;5009159;28;20022;-87
2021/04/06 05:45:51;;;;;;;64.45;43.40;;;;;;;11.82;48.84;71879.72;5004469;28;20084;-86
2021/04/06 05:48:18;;;;;;;64.30;42.10;;;;;;;12.26;48.25;71932.59;4996581;28;20036;-87
2021/04/06 05:50:51;;;;;;;63.15;41.28;;;;;;;11.33;49.57;71823.09;4996583;28;20036;-86
2021/04/06 05:53:21;;;;;;;65.13;44.45;;;;;;;10.79;50.24;71767.22;4997986;28;20084;-87
2021/04/06 05:55:48;;;;;;;75.80;44.80;;;;;;;11.26;51.84;71820.25;5012985;28;20080;-87
2021/04/06 05:58:15;;;;;;;70.68;41.95;;;;;;;11.32;52.38;71828.00;5012825;28;20038;-87
2021/04/06 06:00:42;;;;;;;72.75;45.42;;;;;;;11.29;52.46;71821.66;4996337;28;20026;-86
2021/04/06 06:03:09;;;;;;;69.80;45.90;;;;;;;11.31;53.89;71824.06;5012704;28;20399;-86
2021/04/06 06:05:36;;;;;;;77.90;46.97;;;;;;;11.70;52.39;71871.50;5011772;28;20076;-88
2021/04/06 06:08:12;;;;;;;78.00;49.17;;;;;;;11.93;51.73;71897.16;5012418;28;20064;-87
2021/04/06 06:10:39;;;;;;;68.80;46.72;;;;;;;12.28;51.34;71934.97;5013524;28;20080;-87
2021/04/06 06:13:21;;;;;;;73.50;48.92;;;;;;;11.34;49.71;71827.63;5012085;28;20038;-87
2021/04/06 06:16:09;;;;;;;72.22;47.88;;;;;;;12.64;50.08;71973.34;4995736;28;20040;-87
2021/04/06 06:18:57;;;;;;;79.18;51.13;;;;;;;12.72;50.13;71989.03;4995866;28;20065;-89
2021/04/06 06:21:36;;;;;;;81.72;51.20;;;;;;;12.93;48.75;72012.28;4992848;28;20121;-85
2021/04/06 06:24:04;;;;;;;82.80;51.33;;;;;;;12.37;48.74;71948.44;4994154;28;20022;-87
2021/04/06 06:26:32;;;;;;;78.80;51.97;;;;;;;11.93;49.90;71891.66;4993581;28;20308;-87
2021/04/06 06:29:15;;;;;;;90.50;55.25;;;;;;;12.74;49.72;71990.81;4992340;28;20546;-86
2021/04/06 06:31:49;;;;;;;81.72;51.42;;;;;;;11.75;49.33;71876.88;4976917;28;20117;-87
2021/04/06 06:34:36;;;;;;;80.60;51.72;;;;;;;12.63;49.92;71978.28;4976129;28;20129;-86
2021/04/06 06:37:06;;;;;;;91.60;57.25;;;;;;;12.85;48.75;72003.34;4975915;28;20177;-86
2021/04/06 06:39:41;;;;;;;90.47;51.95;;;;;;;12.23;49.47;71931.78;4992281;28;20034;-86
2021/04/06 06:42:12;;;;;;;77.35;51.10;;;;;;;11.89;50.20;71893.56;4975708;28;20026;-87
2021/04/06 06:44:39;;;;;;;82.47;51.65;;;;;;;12.07;49.94;71913.28;4992617;28;20047;-86
2021/04/06 06:47:23;;;;;;;79.13;50.13;;;;;;;13.14;50.07;72034.59;4980005;28;20042;-87
2021/04/06 06:49:53;;;;;;;76.00;49.38;;;;;;;13.08;51.25;72029.59;4976495;28;20033;-86
2021/04/06 06:52:23;;;;;;;79.75;52.92;;;;;;;12.94;51.83;72011.31;4990028;28;20522;-87
2021/04/06 06:55:00;;;;;;;70.47;48.22;;;;;;;12.60;52.13;71969.19;4997011;28;20050;-86
2021/04/06 06:57:28;;;;;;;74.53;49.38;;;;;;;11.68;52.01;71869.13;4976481;28;20030;-86
2021/04/06 07:00:06;;;;;;;70.53;45.25;;;;;;;11.79;53.24;71881.66;4998645;28;20506;-85
2021/04/06 07:02:33;;;;;;;77.28;47.90;;;;;;;11.71;55.02;71872.13;4993990;28;20076;-87
2021/04/06 07:05:27;;;;;;;70.53;46.05;;;;;;;12.48;55.25;71960.97;4995148;28;20116;-87
2021/04/06 07:08:05;;;;;;;68.30;44.13;;;;;;;11.71;54.95;71872.69;4999915;28;20057;-88
2021/04/06 07:10:35;;;;;;;72.38;47.28;;;;;;;12.42;55.33;71951.66;4999696;28;20391;-84
2021/04/06 07:13:09;;;;;;;;;;;;;;;12.73;56.24;71989.63;4999038;28;20096;-84
2021/04/06 07:15:42;;;;;;;60.22;43.85;;;;;;;12.64;55.74;71973.97;5009566;28;19913;-84
2021/04/06 07:18:13;;;;;;;70.13;44.10;;;;;;;12.32;56.02;71942.50;4995835;28;20088;-84
2021/04/06 07:20:44;;;;;;;62.40;44.38;;;;;;;11.69;56.59;71866.97;4994912;28;20040;-83
2021/04/06 07:23:12;;;;;;;;;;;;;;;12.59;57.01;71973.50;5007331;28;20030;-83
2021/04/06 07:25:42;;;;;;;63.85;43.05;;;;;;;12.23;56.63;71929.00;5010186;28;20430;-82
2021/04/06 07:28:10;;;;;;;72.78;46.28;;;;;;;11.97;57.06;71899.16;4992489;28;20037;-82
2021/04/06 07:30:38;;;;;;;64.15;45.90;;;;;;;11.24;58.00;71818.47;5010316;28;20073;-84
2021/04/06 07:33:06;;;;;;;72.97;46.55;;;;;;;11.49;58.24;71847.06;4992606;28;20387;-82
2021/04/06 07:35:33;;;;;;;65.55;45.42;;;;;;;11.28;58.74;71823.22;4993489;28;20026;-84
2021/04/06 07:38:00;;;;;;;64.03;44.22;;;;;;;11.22;58.73;71816.06;4993260;28;20026;-82
2021/04/06 07:40:32;;;;;;;66.40;45.33;;;;;;;10.36;58.87;71715.03;4993207;28;20026;-83
2021/04/06 07:42:59;;;;;;;70.90;44.33;;;;;;;10.77;58.56;71764.81;5009539;28;20479;-82
2021/04/06 07:45:26;;;;;;;66.93;44.70;;;;;;;12.42;58.49;71951.09;5011499;28;20022;-83
2021/04/06 07:47:53;;;;;;;69.28;44.72;;;;;;;11.58;58.47;71855.03;5012687;28;20479;-83
2021/04/06 07:50:41;;;;;;;64.65;45.55;;;;;;;12.22;58.83;71930.56;5006250;28;20030;-83
2021/04/06 07:53:26;;;;;;;59.25;43.25;;;;;;;12.08;59.18;71914.47;4994262;28;20027;-83
2021/04/06 07:55:58;;;;;;;63.03;43.22;;;;;;;12.16;59.06;71924.59;4979339;28;20128;-85
2021/04/06 07:58:58;;;;;;;66.82;45.38;;;;;;;11.88;59.49;71892.38;4994215;28;20036;-86
2021/04/06 08:01:30;;;;;;;63.88;46.35;;;;;;;11.23;58.29;71811.75;4952900;28;20100;-86
2021/04/06 08:03:59;;;;;;;61.38;43.72;;;;;;;11.75;57.89;71876.88;4994745;28;20026;-84
2021/04/06 08:06:27;;;;;;;64.43;44.47;;;;;;;10.98;57.25;71788.09;4995799;28;20030;-85
2021/04/06 08:08:54;;;;;;;69.65;47.47;;;;;;;11.44;59.17;71836.22;4986110;28;20038;-86
2021/04/06 08:11:54;;;;;;;66.72;46.90;;;;;;;11.43;58.59;71837.78;4991225;28;20076;-85
2021/04/06 08:14:22;;;;;;;62.83;42.88;;;;;;;11.52;60.17;71850.66;5012169;28;20360;-84
2021/04/06 08:16:49;;;;;;;61.97;43.40;;;;;;;11.45;59.08;71839.53;5010215;28;20037;-84
2021/04/06 08:19:30;;;;;;;64.90;46.97;;;;;;;10.60;60.26;71744.56;4994080;28;20063;-86
2021/04/06 08:22:21;;;;;;;62.72;41.65;;;;;;;12.29;58.73;71939.50;5000787;28;20086;-84
2021/04/06 08:24:48;;;;;;;68.65;45.90;;;;;;;11.30;58.22;71825.59;5009312;28;20033;-86
2021/04/06 08:27:35;;;;;;;68.15;44.55;;;;;;;11.23;56.74;71815.13;5008868;28;20056;-85
2021/04/06 08:30:24;;;;;;;64.75;41.50;;;;;;;12.43;56.23;71952.84;5008979;28;20068;-84
2021/04/06 08:33:00;;;;;;;71.13;44.78;;;;;;;12.12;57.42;71916.50;5009728;28;20034;-84
2021/04/06 08:38:24;;;;;;;64.75;42.60;;;;;;;12.23;57.91;71929.00;5014550;28;20045;-84
2021/04/06 08:41:08;;;;;;;66.18;45.75;;;;;;;10.99;59.21;71789.84;4982508;28;20052;-84
2021/04/06 08:43:47;;;;;;;64.53;43.20;;;;;;;11.45;59.43;71842.28;5013003;28;20099;-84
2021/04/06 08:46:33;;;;;;;66.15;45.20;;;;;;;11.77;59.94;71876.53;4996212;28;20033;-84
2021/04/06 08:49:00;;;;;;;67.32;44.05;;;;;;;11.22;59.37;71813.31;4996397;28;20026;-84
2021/04/06 08:51:41;;;;;;;69.55;45.95;;;;;;;11.85;59.81;71888.22;5008454;28;20019;-84
2021/04/06 08:54:16;;;;;;;70.20;43.20;;;;;;;11.88;59.21;71889.63;4995354;28;20504;-83
2021/04/06 08:57:03;;;;;;;69.82;44.53;;;;;;;11.99;59.22;71901.53;4978275;28;20034;-84
2021/04/06 08:59:35;;;;;;;63.90;42.75;;;;;;;12.19;59.63;71927.59;4978479;28;20026;-85
2021/04/06 09:02:08;;;;;;;66.28;45.20;;;;;;;12.09;61.22;71915.66;4979325;28;20049;-84
2021/04/06 09:04:38;;;;;;;59.45;44.88;;;;;;;11.60;60.75;71859.59;4979884;28;20060;-84
2021/04/06 09:07:25;;;;;;;63.53;43.97;;;;;;;12.38;61.31;71943.53;4981879;28;20050;-84
2021/04/06 09:10:05;;;;;;;73.38;45.78;;;;;;;11.88;60.41;71886.88;4963455;28;20118;-83
2021/04/06 09:12:34;;;;;;;66.15;46.78;;;;;;;11.52;60.09;71845.13;4976637;28;20419;-86
2021/04/06 09:15:03;;;;;;;67.22;44.83;;;;;;;11.57;61.33;71856.63;5000448;28;20033;-85
2021/04/06 09:17:37;;;;;;;60.22;44.50;;;;;;;12.00;61.65;71905.50;4981878;28;20031;-86
2021/04/06 09:20:08;;;;;;;65.82;43.75;;;;;;;11.74;59.55;71875.69;4999029;28;20035;-85
2021/04/06 09:22:35;;;;;;;68.95;45.78;;;;;;;11.69;60.46;71864.81;4980559;28;20053;-84
2021/04/06 09:25:24;;;;;;;71.47;44.72;;;;;;;12.08;59.60;71915.06;4975646;28;20029;-86
2021/04/06 09:27:54;;;;;;;63.30;44.55;;;;;;;11.66;59.63;71860.63;4995351;28;20038;-89
2021/04/06 09:30:32;;;;;;;68.72;43.75;;;;;;;12.04;58.68;71907.53;4988641;28;20038;-87
2021/04/06 09:33:01;;;;;;;66.38;42.00;;;;;;;10.77;59.06;71761.50;4981098;28;20052;-87
2021/04/06 09:35:28;;;;;;;68.13;45.58;;;;;;;11.96;59.68;71900.72;4977303;28;20030;-89
2021/04/06 09:37:59;;;;;;;66.13;45.17;;;;;;;11.88;60.19;71892.38;4977130;28;20030;-86
2021/04/06 09:40:34;;;;;;;65.35;41.92;;;;;;;11.56;61.67;71852.66;4976955;28;20069;-87
2021/04/06 09:43:02;;;;;;;65.05;44.55;;;;;;;10.95;62.11;71785.69;4976892;28;20109;-85
2021/04/06 09:45:30;;;;;;;68.72;42.53;;;;;;;10.99;62.66;71789.28;4993672;28;20365;-82
2021/04/06 09:47:57;;;;;;;74.45;44.88;;;;;;;9.95;62.83;71670.72;4992604;28;20044;-85
2021/04/06 09:50:26;;;;;;;69.97;45.30;;;;;;;10.71;63.49;71757.69;4989823;28;20520;-82
2021/04/06 09:52:55;;;;;;;62.92;44.05;;;;;;;11.15;64.12;71804.97;4976368;28;20081;-83
2021/04/06 09:55:22;;;;;;;79.53;47.15;;;;;;;10.97;64.76;71784.13;4993819;28;20042;-83
2021/04/06 09:57:54;;;;;;;70.90;46.17;;;;;;;9.77;64.85;71649.28;4995167;28;20387;-85
2021/04/06 10:00:27;;;;;;;73.22;45.17;;;;;;;9.74;65.88;71640.22;4991515;28;20487;-83
2021/04/06 10:03:06;;;;;;;72.07;44.90;;;;;;;11.12;65.49;71801.41;4995880;28;20037;-84
2021/04/06 10:05:34;;;;;;;67.25;44.33;;;;;;;10.11;65.82;71689.16;5013565;28;20026;-84
2021/04/06 10:08:01;;;;;;;63.25;44.22;;;;;;;9.86;66.36;71657.25;4995704;28;20026;-85
2021/04/06 10:10:31;;;;;;;70.20;47.75;;;;;;;10.64;65.38;71749.94;5012719;28;20057;-86
2021/04/06 10:12:59;;;;;;;73.40;46.15;;;;;;;11.02;66.22;71790.69;4996224;28;20034;-85
2021/04/06 10:15:30;;;;;;;69.45;44.97;;;;;;;11.25;66.32;71813.56;5013690;28;20030;-83
2021/04/06 10:18:07;;;;;;;76.63;46.10;;;;;;;10.63;66.18;71748.75;5014268;28;20025;-83
2021/04/06 10:20:46;;;;;;;67.32;42.92;;;;;;;10.86;67.35;71774.38;4992446;28;20045;-81
2021/04/06 10:23:29;;;;;;;69.35;44.20;;;;;;;9.62;66.64;71629.28;5012889;28;20026;-82
2021/04/06 10:25:57;;;;;;;75.85;44.80;;;;;;;11.05;65.29;71794.25;5004334;28;20063;-83
2021/04/06 10:28:26;;;;;;;72.18;42.95;;;;;;;10.08;66.06;71682.25;5020104;28;20079;-83
2021/04/06 10:31:04;;;;;;;59.67;42.43;;;;;;;10.42;65.71;71724.34;4991512;28;20030;-82
2021/04/06 10:33:34;;;;;;;68.45;41.17;;;;;;;10.47;65.62;71730.28;5019484;28;20402;-82
2021/04/06 10:36:03;;;;;;;;;;;;;;;11.24;66.39;71812.97;5019913;28;20121;-82
2021/04/06 10:38:34;;;;;;;63.50;40.58;;;;;;;11.17;65.98;71804.63;4996390;28;19925;-84
2021/04/06 10:41:17;;;;;;;62.10;43.33;;;;;;;11.08;66.51;71800.00;4997039;28;20091;-83
2021/04/06 10:43:49;;;;;;;57.97;38.80;;;;;;;11.01;66.27;71792.25;5017543;28;20029;-83
2021/04/06 10:46:22;;;;;;;71.43;42.40;;;;;;;10.99;65.26;71789.84;5009378;28;20124;-83
2021/04/06 10:49:00;;;;;;;58.70;39.90;;;;;;;10.68;63.56;71751.34;4992275;28;20471;-84
2021/04/06 10:51:29;;;;;;;59.42;37.00;;;;;;;10.33;63.42;71714.19;5011775;28;20034;-83
2021/04/06 10:54:03;;;;;;;58.17;37.65;;;;;;;11.01;62.48;71791.66;5011975;28;20515;-83
2021/04/06 10:56:39;;;;;;;69.32;40.80;;;;;;;10.18;61.23;71696.91;5011581;28;20022;-83
2021/04/06 10:59:08;;;;;;;64.13;38.85;;;;;;;11.20;62.02;71811.53;4993983;28;20406;-82
2021/04/06 11:01:39;;;;;;;59.80;39.70;;;;;;;11.17;61.90;71807.38;5018861;28;20083;-81
2021/04/06 11:04:21;;;;;;;67.85;40.35;;;;;;;10.10;63.29;71684.66;4997736;28;20029;-83
2021/04/06 11:06:58;;;;;;;64.95;39.92;;;;;;;11.07;64.72;71798.81;5008788;28;20032;-83
2021/04/06 11:09:34;;;;;;;64.30;41.38;;;;;;;10.05;65.55;71681.44;5006699;28;20022;-83
2021/04/06 11:12:01;;;;;;;63.08;39.67;;;;;;;10.44;64.60;71726.72;5016927;28;20030;-82
2021/04/06 11:14:31;;;;;;;71.20;40.60;;;;;;;11.02;63.55;71790.69;4994502;28;20083;-82
2021/04/06 11:17:00;;;;;;;64.77;40.30;;;;;;;10.50;63.47;71733.25;5020818;28;20033;-83
2021/04/06 11:19:29;;;;;;;61.65;38.88;;;;;;;11.04;62.97;71793.06;5004426;28;20029;-82
2021/04/06 11:22:02;;;;;;;73.45;42.40;;;;;;;10.48;62.47;71728.75;5000895;28;20091;-82
2021/04/06 11:24:32;;;;;;;62.78;38.22;;;;;;;10.64;61.42;71749.94;5017081;28;20022;-82
2021/04/06 11:27:01;;;;;;;60.33;40.15;;;;;;;10.13;62.01;71691.56;5008004;28;20017;-83
2021/04/06 11:29:30;;;;;;;61.63;41.33;;;;;;;11.12;61.14;71804.75;5019070;28;20089;-83
2021/04/06 11:32:03;;;;;;;71.97;41.35;;;;;;;10.65;61.99;71748.38;5021710;28;20379;-83
2021/04/06 11:34:32;;;;;;;65.10;40.42;;;;;;;10.95;61.91;71785.09;5001731;28;20036;-83
2021/04/06 11:37:00;;;;;;;65.47;43.33;;;;;;;10.07;62.38;71681.06;5012849;28;20036;-83
2021/04/06 11:39:33;;;;;;;67.35;41.85;;;;;;;10.14;63.04;71689.41;4991359;28;20040;-82
2021/04/06 11:42:00;;;;;;;74.47;40.20;;;;;;;10.85;61.60;71771.03;4990137;28;20029;-83
2021/04/06 11:44:28;;;;;;;60.65;37.97;;;;;;;10.28;61.37;71702.72;4999982;28;20029;-84
2021/04/06 11:46:54;;;;;;;64.10;40.35;;;;;;;10.13;61.51;71685.47;4986016;28;20034;-83
2021/04/06 11:49:22;;;;;;;64.07;35.30;;;;;;;10.74;59.90;71761.25;5009131;28;20121;-83